Time;durP1;ratioP1;P1;durP2;ratioP2;P2;SDS_P1;SDS_P2;PMS_P1;PMS_P2;Temp;Humidity;BMP_temperature;BMP_pressure;BME280_temperature;BME280_humidity;BME280_pressure;Samples;Min_cycle;Max_cycle;Signal;HPM_P1;HPM_P2
2023/04/07 00:01:11;;;;;;;43.17;27.58;;;;;;;;;;5118114;27;20057;-81
2023/04/07 00:03:39;;;;;;;41.90;25.02;;;;;;;;;;5119512;27;20107;-79
2023/04/07 00:06:05;;;;;;;46.78;28.75;;;;;;;;;;5138431;27;20054;-82
2023/04/07 00:08:31;;;;;;;44.30;28.15;;;;;;;;;;5123822;27;20050;-80
2023/04/07 00:10:57;;;;;;;49.38;28.27;;;;;;;;;;5122660;27;20392;-82
2023/04/07 00:13:23;;;;;;;44.65;26.45;;;;;;;;;;5109746;27;20046;-81
2023/04/07 00:15:49;;;;;;;46.33;27.98;;;;;;;;;;5121814;27;20150;-80
2023/04/07 00:18:15;;;;;;;46.55;26.83;;;;;;;;;;5118403;27;20466;-80
2023/04/07 00:20:44;;;;;;;49.90;29.65;;;;;;;;;;5137567;27;20039;-82
2023/04/07 00:23:10;;;;;;;50.85;30.77;;;;;;;;;;5135900;27;20053;-82
2023/04/07 00:25:36;;;;;;;52.90;29.77;;;;;;;;;;5129822;27;20046;-80
2023/04/07 00:28:02;;;;;;;50.75;29.38;;;;;;;;;;5114586;27;20073;-80
2023/04/07 00:30:29;;;;;;;54.05;30.65;;;;;;;;;;5096526;27;20133;-80
2023/04/07 00:32:55;;;;;;;57.78;30.85;;;;;;;;;;5103553;27;20046;-83
2023/04/07 00:35:21;;;;;;;44.45;25.95;;;;;;;;;;5134386;27;20054;-81
2023/04/07 00:37:47;;;;;;;54.20;30.00;;;;;;;;;;5141210;27;20122;-81
2023/04/07 00:40:13;;;;;;;55.15;30.73;;;;;;;;;;5134529;27;20030;-80
2023/04/07 00:42:39;;;;;;;54.35;31.15;;;;;;;;;;5130173;27;20058;-81
2023/04/07 00:45:06;;;;;;;55.17;29.73;;;;;;;;;;5131773;27;20043;-83
2023/04/07 00:47:32;;;;;;;56.20;30.52;;;;;;;;;;5135720;27;20044;-82
2023/04/07 00:49:58;;;;;;;56.10;32.83;;;;;;;;;;5115766;27;20047;-82
2023/04/07 00:52:31;;;;;;;59.47;31.55;;;;;;;;;;5110296;27;20081;-81
2023/04/07 00:54:58;;;;;;;53.88;30.10;;;;;;;;;;5122634;27;20065;-82
2023/04/07 00:57:24;;;;;;;51.97;29.15;;;;;;;;;;5132454;27;20539;-82
2023/04/07 00:59:51;;;;;;;57.35;31.55;;;;;;;;;;5114509;27;20037;-81
2023/04/07 01:02:23;;;;;;;57.78;31.63;;;;;;;;;;5098524;27;20108;-82
2023/04/07 01:04:58;;;;;;;60.83;30.33;;;;;;;;;;5103968;27;20031;-82
2023/04/07 01:07:28;;;;;;;64.78;33.03;;;;;;;;;;5115802;27;20053;-82
2023/04/07 01:09:59;;;;;;;59.13;31.25;;;;;;;;;;5114249;27;20064;-81
2023/04/07 01:12:40;;;;;;;65.47;33.38;;;;;;;;;;5134984;27;20051;-81
2023/04/07 01:15:09;;;;;;;56.78;30.13;;;;;;;;;;5131657;27;20039;-79
2023/04/07 01:17:37;;;;;;;62.88;32.03;;;;;;;;;;5115262;27;20485;-81
2023/04/07 01:20:06;;;;;;;62.22;32.40;;;;;;;;;;5112265;27;20042;-80
2023/04/07 01:22:33;;;;;;;60.58;29.60;;;;;;;;;;5134703;27;20046;-81
2023/04/07 01:25:06;;;;;;;63.75;33.42;;;;;;;;;;5134948;27;20054;-80
2023/04/07 01:27:51;;;;;;;63.42;30.15;;;;;;;;;;5118308;27;20054;-81
2023/04/07 01:30:17;;;;;;;60.50;33.08;;;;;;;;;;5115232;27;20504;-80
2023/04/07 01:32:44;;;;;;;66.22;33.28;;;;;;;;;;5127258;27;20053;-81
2023/04/07 01:35:12;;;;;;;64.30;34.33;;;;;;;;;;5155748;27;20039;-80
2023/04/07 01:37:38;;;;;;;59.05;29.85;;;;;;;;;;5125367;27;20562;-80
2023/04/07 01:40:07;;;;;;;70.95;33.40;;;;;;;;;;5127005;27;20050;-81
2023/04/07 01:42:33;;;;;;;70.70;32.55;;;;;;;;;;5116697;27;20051;-79
2023/04/07 01:45:01;;;;;;;70.97;34.97;;;;;;;;;;5144954;27;20054;-82
2023/04/07 01:47:29;;;;;;;73.30;35.25;;;;;;;;;;5119632;27;20058;-81
2023/04/07 01:49:57;;;;;;;72.93;34.28;;;;;;;;;;5114700;27;20150;-80
2023/04/07 01:52:23;;;;;;;63.65;32.58;;;;;;;;;;5121832;27;20038;-80
2023/04/07 01:54:49;;;;;;;71.53;34.75;;;;;;;;;;5111163;27;20050;-80
2023/04/07 01:57:15;;;;;;;70.18;32.72;;;;;;;;;;5125782;27;20039;-81
2023/04/07 01:59:41;;;;;;;65.20;30.92;;;;;;;;;;5132768;27;20099;-82
2023/04/07 02:02:07;;;;;;;72.07;33.33;;;;;;;;;;5139676;27;20034;-80
2023/04/07 02:04:44;;;;;;;82.78;38.50;;;;;;;;;;5132394;27;20053;-80
2023/04/07 02:07:33;;;;;;;74.63;35.10;;;;;;;;;;5135098;27;20047;-80
2023/04/07 02:10:00;;;;;;;70.07;33.45;;;;;;;;;;5126625;27;20054;-80
2023/04/07 02:12:28;;;;;;;74.00;35.95;;;;;;;;;;5120143;27;20083;-80
2023/04/07 02:14:55;;;;;;;79.40;33.88;;;;;;;;;;5102594;27;20050;-79
2023/04/07 02:17:22;;;;;;;82.15;36.75;;;;;;;;;;5116352;27;20552;-80
2023/04/07 02:19:48;;;;;;;80.00;35.55;;;;;;;;;;5142178;27;20043;-79
2023/04/07 02:22:15;;;;;;;81.57;38.00;;;;;;;;;;5138830;27;20039;-80
2023/04/07 02:24:41;;;;;;;75.97;33.47;;;;;;;;;;5131720;27;20035;-80
2023/04/07 02:27:08;;;;;;;93.70;39.25;;;;;;;;;;5133629;27;20042;-80
2023/04/07 02:29:34;;;;;;;93.32;40.70;;;;;;;;;;5104117;27;20057;-80
2023/04/07 02:32:00;;;;;;;90.63;38.70;;;;;;;;;;5111489;27;20402;-81
2023/04/07 02:34:26;;;;;;;91.80;38.75;;;;;;;;;;5117575;27;20085;-82
2023/04/07 02:36:52;;;;;;;94.90;40.13;;;;;;;;;;5114072;27;20795;-81
2023/04/07 02:39:18;;;;;;;81.20;36.80;;;;;;;;;;5099919;27;20085;-81
2023/04/07 02:41:44;;;;;;;81.95;38.03;;;;;;;;;;5114889;27;20042;-82
2023/04/07 02:44:10;;;;;;;90.68;39.70;;;;;;;;;;5128279;27;20050;-82
2023/04/07 02:46:36;;;;;;;90.50;39.88;;;;;;;;;;5125147;27;20141;-82
2023/04/07 02:49:02;;;;;;;95.45;41.33;;;;;;;;;;5116097;27;20165;-81
2023/04/07 02:51:28;;;;;;;80.00;38.08;;;;;;;;;;5115779;27;20039;-82
2023/04/07 02:53:54;;;;;;;81.03;37.55;;;;;;;;;;5138110;27;20128;-81
2023/04/07 02:56:20;;;;;;;88.47;41.05;;;;;;;;;;5119147;27;20517;-82
2023/04/07 02:58:46;;;;;;;88.00;40.35;;;;;;;;;;5115941;27;20138;-80
2023/04/07 03:01:12;;;;;;;90.68;40.25;;;;;;;;;;5109554;27;20557;-83
2023/04/07 03:03:38;;;;;;;77.70;37.78;;;;;;;;;;5134225;27;20099;-82
2023/04/07 03:06:05;;;;;;;83.68;39.28;;;;;;;;;;5130327;27;20054;-81
2023/04/07 03:08:30;;;;;;;78.63;36.15;;;;;;;;;;5134799;27;20035;-82
2023/04/07 03:10:56;;;;;;;84.05;37.95;;;;;;;;;;5132233;27;20038;-82
2023/04/07 03:13:28;;;;;;;82.50;38.80;;;;;;;;;;5120238;27;20039;-82
2023/04/07 03:15:54;;;;;;;80.15;37.53;;;;;;;;;;5140389;27;20042;-82
2023/04/07 03:18:20;;;;;;;75.72;38.33;;;;;;;;;;5133564;27;20622;-81
2023/04/07 03:20:47;;;;;;;71.20;36.63;;;;;;;;;;5117593;27;20059;-81
2023/04/07 03:23:13;;;;;;;69.57;34.65;;;;;;;;;;5112975;27;20057;-82
2023/04/07 03:25:40;;;;;;;82.13;37.35;;;;;;;;;;5138809;27;20668;-81
2023/04/07 03:28:06;;;;;;;79.90;36.78;;;;;;;;;;5115248;27;20795;-82
2023/04/07 03:30:32;;;;;;;89.07;38.60;;;;;;;;;;5129030;27;20043;-80
2023/04/07 03:32:58;;;;;;;88.93;37.20;;;;;;;;;;5118497;27;20038;-80
2023/04/07 03:35:24;;;;;;;83.13;36.33;;;;;;;;;;5092356;27;20043;-81
2023/04/07 03:37:50;;;;;;;71.78;33.90;;;;;;;;;;5125696;27;20035;-82
2023/04/07 03:40:16;;;;;;;67.70;33.75;;;;;;;;;;5136854;27;20045;-82
2023/04/07 03:42:42;;;;;;;63.30;33.30;;;;;;;;;;5115134;27;20047;-82
2023/04/07 03:45:09;;;;;;;65.97;33.47;;;;;;;;;;5131210;27;20062;-79
2023/04/07 03:47:35;;;;;;;61.90;32.67;;;;;;;;;;5115855;27;20039;-82
2023/04/07 03:50:01;;;;;;;61.20;32.42;;;;;;;;;;5123369;27;20077;-83
2023/04/07 03:52:27;;;;;;;66.65;33.85;;;;;;;;;;5133973;27;20135;-81
2023/04/07 03:54:53;;;;;;;61.92;32.70;;;;;;;;;;5114978;27;20054;-81
2023/04/07 03:57:19;;;;;;;54.25;30.50;;;;;;;;;;5123779;27;20150;-81
2023/04/07 03:59:49;;;;;;;56.80;32.25;;;;;;;;;;5129166;27;20038;-82
2023/04/07 04:02:15;;;;;;;51.53;30.25;;;;;;;;;;5132222;27;20413;-82
2023/04/07 04:04:41;;;;;;;56.05;32.33;;;;;;;;;;5120091;27;20071;-82
2023/04/07 04:07:07;;;;;;;55.53;30.55;;;;;;;;;;5126994;27;20054;-82
2023/04/07 04:09:34;;;;;;;58.78;30.67;;;;;;;;;;5116183;27;20133;-81
2023/04/07 04:12:00;;;;;;;55.85;30.08;;;;;;;;;;5125758;27;20116;-81
2023/04/07 04:14:26;;;;;;;51.75;30.65;;;;;;;;;;5117041;27;20137;-81
2023/04/07 04:16:52;;;;;;;49.28;30.83;;;;;;;;;;5123347;27;20071;-81
2023/04/07 04:19:18;;;;;;;48.95;29.23;;;;;;;;;;5113685;27;20078;-81
2023/04/07 04:21:44;;;;;;;56.67;30.73;;;;;;;;;;5112148;27;20736;-81
2023/04/07 04:24:10;;;;;;;48.97;29.15;;;;;;;;;;5155239;27;20068;-82
2023/04/07 04:26:38;;;;;;;47.38;28.45;;;;;;;;;;5120963;27;20046;-82
2023/04/07 04:29:04;;;;;;;49.17;30.30;;;;;;;;;;5102918;27;20043;-80
2023/04/07 04:31:30;;;;;;;42.30;27.13;;;;;;;;;;5130822;27;20111;-81
2023/04/07 04:33:56;;;;;;;45.03;26.55;;;;;;;;;;5124962;27;20031;-82
2023/04/07 04:36:22;;;;;;;45.88;27.83;;;;;;;;;;5109271;27;20043;-81
2023/04/07 04:38:48;;;;;;;47.78;27.52;;;;;;;;;;5125572;27;20584;-80
2023/04/07 04:41:14;;;;;;;42.85;25.45;;;;;;;;;;5136643;27;20135;-80
2023/04/07 04:43:40;;;;;;;42.10;26.80;;;;;;;;;;5108195;27;20068;-82
2023/04/07 04:46:06;;;;;;;47.28;26.55;;;;;;;;;;5116871;27;20112;-81
2023/04/07 04:48:32;;;;;;;40.55;26.23;;;;;;;;;;5123904;27;20478;-80
2023/04/07 04:50:58;;;;;;;43.17;25.52;;;;;;;;;;5133373;27;20050;-81
2023/04/07 04:53:24;;;;;;;41.88;25.75;;;;;;;;;;5134046;27;20046;-81
2023/04/07 04:55:51;;;;;;;36.97;24.20;;;;;;;;;;5133014;27;20073;-81
2023/04/07 04:58:18;;;;;;;41.65;25.70;;;;;;;;;;5131635;27;20047;-80
2023/04/07 05:00:44;;;;;;;37.53;25.15;;;;;;;;;;5105063;27;20088;-80
2023/04/07 05:03:10;;;;;;;39.97;25.83;;;;;;;;;;5107175;27;20047;-82
2023/04/07 05:05:36;;;;;;;39.45;25.17;;;;;;;;;;5118765;27;20049;-82
2023/04/07 05:08:02;;;;;;;39.10;23.63;;;;;;;;;;5110042;27;20050;-81
2023/04/07 05:10:28;;;;;;;39.50;24.73;;;;;;;;;;5108844;27;20889;-81
2023/04/07 05:12:54;;;;;;;43.03;25.80;;;;;;;;;;5121443;27;20130;-80
2023/04/07 05:15:20;;;;;;;43.25;26.88;;;;;;;;;;5118969;27;20039;-80
2023/04/07 05:17:49;;;;;;;42.75;25.80;;;;;;;;;;5101438;27;20076;-81
2023/04/07 05:20:16;;;;;;;41.72;25.55;;;;;;;;;;5118452;27;20039;-81
2023/04/07 05:22:42;;;;;;;40.40;25.90;;;;;;;;;;5130464;27;20094;-79
2023/04/07 05:25:08;;;;;;;40.50;25.08;;;;;;;;;;5126617;27;20082;-81
2023/04/07 05:27:34;;;;;;;39.25;24.67;;;;;;;;;;5144305;27;20078;-79
2023/04/07 05:30:00;;;;;;;41.65;25.63;;;;;;;;;;5131513;27;20129;-81
2023/04/07 05:32:28;;;;;;;40.20;25.48;;;;;;;;;;5125713;27;20042;-82
2023/04/07 05:34:54;;;;;;;43.75;25.90;;;;;;;;;;5139734;27;20129;-81
2023/04/07 05:37:20;;;;;;;40.85;25.75;;;;;;;;;;5136672;27;20039;-81
2023/04/07 05:39:46;;;;;;;40.00;26.38;;;;;;;;;;5132520;27;20035;-81
2023/04/07 05:42:12;;;;;;;49.50;26.75;;;;;;;;;;5121287;27;20038;-80
2023/04/07 05:44:38;;;;;;;40.88;25.92;;;;;;;;;;5118045;27;20438;-82
2023/04/07 05:47:07;;;;;;;40.92;25.70;;;;;;;;;;5096282;27;20054;-81
2023/04/07 05:49:34;;;;;;;38.95;25.02;;;;;;;;;;5092702;27;20043;-81
2023/04/07 05:52:02;;;;;;;40.25;26.08;;;;;;;;;;5119707;27;20039;-82
2023/04/07 05:54:28;;;;;;;42.08;26.42;;;;;;;;;;5098895;27;20107;-81
2023/04/07 05:56:55;;;;;;;37.85;25.67;;;;;;;;;;5115672;27;20061;-79
2023/04/07 05:59:21;;;;;;;41.17;26.30;;;;;;;;;;5116137;27;20039;-80
2023/04/07 06:01:47;;;;;;;42.90;26.17;;;;;;;;;;5117890;27;20039;-80
2023/04/07 06:04:13;;;;;;;44.20;26.42;;;;;;;;;;5116591;27;20041;-80
2023/04/07 06:06:39;;;;;;;40.42;25.85;;;;;;;;;;5113105;27;20591;-81
2023/04/07 06:09:05;;;;;;;38.33;25.77;;;;;;;;;;5092542;27;20071;-80
2023/04/07 06:11:31;;;;;;;36.30;24.52;;;;;;;;;;5103003;27;20131;-81
2023/04/07 06:13:57;;;;;;;38.50;24.48;;;;;;;;;;5121758;27;20023;-82
2023/04/07 06:16:23;;;;;;;37.92;23.98;;;;;;;;;;5119516;27;20043;-80
2023/04/07 06:18:49;;;;;;;39.75;25.38;;;;;;;;;;5118643;27;20055;-83
2023/04/07 06:21:15;;;;;;;39.33;24.70;;;;;;;;;;5121696;27;20783;-82
2023/04/07 06:23:41;;;;;;;38.00;22.77;;;;;;;;;;5107297;22;20048;-81
2023/04/07 06:26:11;;;;;;;37.70;24.10;;;;;;;;;;5072988;28;20085;-81
2023/04/07 06:28:37;;;;;;;41.15;24.75;;;;;;;;;;5057967;28;20072;-82
2023/04/07 06:31:03;;;;;;;36.90;23.55;;;;;;;;;;5072672;28;20055;-82
2023/04/07 06:33:29;;;;;;;34.97;23.63;;;;;;;;;;5073588;28;20040;-80
2023/04/07 06:35:55;;;;;;;36.95;23.38;;;;;;;;;;5075897;28;20078;-81
2023/04/07 06:38:22;;;;;;;35.58;23.92;;;;;;;;;;5073963;28;20044;-82
2023/04/07 06:40:48;;;;;;;37.90;23.77;;;;;;;;;;5091457;28;20059;-81
2023/04/07 06:43:14;;;;;;;35.80;22.90;;;;;;;;;;5075314;28;20048;-81
2023/04/07 06:45:40;;;;;;;36.15;23.45;;;;;;;;;;5071987;28;20590;-81
2023/04/07 06:48:06;;;;;;;35.72;24.08;;;;;;;;;;5073246;28;20047;-81
2023/04/07 06:50:32;;;;;;;36.78;24.10;;;;;;;;;;5077237;28;20036;-81
2023/04/07 06:52:58;;;;;;;35.38;23.13;;;;;;;;;;5074234;28;20036;-81
2023/04/07 06:55:25;;;;;;;34.83;22.38;;;;;;;;;;5076738;28;20903;-81
2023/04/07 06:57:51;;;;;;;34.38;23.42;;;;;;;;;;5060001;28;21486;-81
2023/04/07 07:00:18;;;;;;;32.90;22.40;;;;;;;;;;5074745;28;20040;-81
2023/04/07 07:02:44;;;;;;;31.13;20.83;;;;;;;;;;5058067;28;20040;-80
2023/04/07 07:05:10;;;;;;;33.83;23.42;;;;;;;;;;5085671;28;20048;-81
2023/04/07 07:07:36;;;;;;;34.85;22.27;;;;;;;;;;5096255;28;20067;-79
2023/04/07 07:10:03;;;;;;;31.88;21.77;;;;;;;;;;5077037;28;20043;-80
2023/04/07 07:12:29;;;;;;;32.70;20.42;;;;;;;;;;5073543;28;20052;-79
2023/04/07 07:14:55;;;;;;;27.73;20.40;;;;;;;;;;5072020;28;20349;-79
2023/04/07 07:17:21;;;;;;;28.88;20.60;;;;;;;;;;5077499;28;20479;-78
2023/04/07 07:19:47;;;;;;;28.27;20.45;;;;;;;;;;5076501;28;20593;-79
2023/04/07 07:22:13;;;;;;;28.33;19.73;;;;;;;;;;5075691;28;20051;-79
2023/04/07 07:24:39;;;;;;;32.67;21.23;;;;;;;;;;5076308;28;20062;-79
2023/04/07 07:27:05;;;;;;;27.58;18.73;;;;;;;;;;5082898;28;20449;-78
2023/04/07 07:29:31;;;;;;;29.13;19.80;;;;;;;;;;5080135;28;20064;-80
2023/04/07 07:31:57;;;;;;;26.65;19.38;;;;;;;;;;5075481;28;21716;-82
2023/04/07 07:34:24;;;;;;;26.95;19.20;;;;;;;;;;5079722;28;20043;-82
2023/04/07 07:36:50;;;;;;;26.00;19.25;;;;;;;;;;5080079;28;20050;-80
2023/04/07 07:39:16;;;;;;;25.35;18.17;;;;;;;;;;5075327;28;20731;-80
2023/04/07 07:41:42;;;;;;;26.20;18.33;;;;;;;;;;5073304;28;20070;-79
2023/04/07 07:44:08;;;;;;;27.80;18.40;;;;;;;;;;5076143;28;20051;-79
2023/04/07 07:46:34;;;;;;;27.23;18.55;;;;;;;;;;5069996;28;20032;-80
2023/04/07 07:49:00;;;;;;;26.23;17.77;;;;;;;;;;5071255;28;20044;-80
2023/04/07 07:51:26;;;;;;;21.33;16.83;;;;;;;;;;5072364;28;20040;-81
2023/04/07 07:53:52;;;;;;;21.80;16.88;;;;;;;;;;5071690;28;20036;-80
2023/04/07 07:56:18;;;;;;;21.48;16.27;;;;;;;;;;5073808;28;20044;-82
2023/04/07 07:58:45;;;;;;;21.30;16.88;;;;;;;;;;5072093;28;20460;-80
2023/04/07 08:01:11;;;;;;;21.83;16.33;;;;;;;;;;5071541;28;20047;-81
2023/04/07 08:03:37;;;;;;;24.27;17.52;;;;;;;;;;5078033;28;20411;-78
2023/04/07 08:06:03;;;;;;;23.65;16.70;;;;;;;;;;5089733;28;20403;-79
2023/04/07 08:08:29;;;;;;;20.85;15.82;;;;;;;;;;5079536;28;20051;-80
2023/04/07 08:10:55;;;;;;;24.83;15.82;;;;;;;;;;5073258;28;20048;-80
2023/04/07 08:13:21;;;;;;;22.75;14.75;;;;;;;;;;5068986;28;20086;-79
2023/04/07 08:15:47;;;;;;;23.73;14.52;;;;;;;;;;5071103;28;20052;-80
2023/04/07 08:18:13;;;;;;;19.67;14.50;;;;;;;;;;5073486;28;20044;-82
2023/04/07 08:20:41;;;;;;;20.08;15.27;;;;;;;;;;5069223;28;20047;-79
2023/04/07 08:23:08;;;;;;;22.52;15.63;;;;;;;;;;5073058;28;20078;-79
2023/04/07 08:25:34;;;;;;;19.77;14.68;;;;;;;;;;5072357;28;20040;-81
2023/04/07 08:28:00;;;;;;;20.23;15.32;;;;;;;;;;5079398;28;20040;-79
2023/04/07 08:30:26;;;;;;;22.38;16.25;;;;;;;;;;5080936;28;20057;-79
2023/04/07 08:32:52;;;;;;;27.42;19.33;;;;;;;;;;5071709;28;20869;-80
2023/04/07 08:35:18;;;;;;;27.55;20.42;;;;;;;;;;5079751;28;20400;-79
2023/04/07 08:37:44;;;;;;;29.20;19.80;;;;;;;;;;5072803;28;20039;-79
2023/04/07 08:40:11;;;;;;;30.95;21.13;;;;;;;;;;5070284;28;20050;-80
2023/04/07 08:42:40;;;;;;;26.98;20.02;;;;;;;;;;5069173;28;20048;-81
2023/04/07 08:45:07;;;;;;;29.67;19.90;;;;;;;;;;5074058;28;20451;-79
2023/04/07 08:47:34;;;;;;;27.05;20.08;;;;;;;;;;5072791;28;20540;-77
2023/04/07 08:50:01;;;;;;;24.75;18.70;;;;;;;;;;5077218;28;20185;-77
2023/04/07 08:52:33;;;;;;;28.38;20.55;;;;;;;;;;5089916;28;20052;-78
2023/04/07 08:55:01;;;;;;;26.65;19.05;;;;;;;;;;5076990;28;20048;-77
2023/04/07 08:57:31;;;;;;;25.67;19.75;;;;;;;;;;5068183;28;20145;-77
2023/04/07 09:00:01;;;;;;;29.92;20.52;;;;;;;;;;5077988;28;20044;-77
2023/04/07 09:02:27;;;;;;;28.40;21.42;;;;;;;;;;5078253;28;20044;-78
2023/04/07 09:04:53;;;;;;;28.35;20.90;;;;;;;;;;5078740;28;20048;-77
2023/04/07 09:07:19;;;;;;;28.00;20.23;;;;;;;;;;5079396;28;20028;-77
2023/04/07 09:09:46;;;;;;;28.80;19.90;;;;;;;;;;5077250;28;20083;-77
2023/04/07 09:12:12;;;;;;;26.88;19.55;;;;;;;;;;5075324;28;20147;-77
2023/04/07 09:14:38;;;;;;;27.30;20.23;;;;;;;;;;5062866;28;20050;-78
2023/04/07 09:17:04;;;;;;;28.38;20.63;;;;;;;;;;5078927;28;20047;-76
2023/04/07 09:19:30;;;;;;;28.05;19.25;;;;;;;;;;5074444;28;20519;-78
2023/04/07 09:21:56;;;;;;;26.90;19.45;;;;;;;;;;5075518;28;20087;-77
2023/04/07 09:24:23;;;;;;;26.55;19.48;;;;;;;;;;5062190;28;20142;-78
2023/04/07 09:26:49;;;;;;;26.88;18.20;;;;;;;;;;5078869;28;20048;-77
2023/04/07 09:29:19;;;;;;;25.73;18.02;;;;;;;;;;5078055;28;20376;-77
2023/04/07 09:31:54;;;;;;;26.25;19.40;;;;;;;;;;5077626;28;20094;-77
2023/04/07 09:34:27;;;;;;;25.65;19.13;;;;;;;;;;5075316;28;20080;-77
2023/04/07 09:36:53;;;;;;;25.08;18.27;;;;;;;;;;5066439;28;20127;-76
2023/04/07 09:39:19;;;;;;;24.25;18.27;;;;;;;;;;5066266;28;20075;-77
2023/04/07 09:41:45;;;;;;;25.48;18.23;;;;;;;;;;5077880;28;20188;-77
2023/04/07 09:44:11;;;;;;;21.27;16.40;;;;;;;;;;5072365;28;20051;-77
2023/04/07 09:46:58;;;;;;;22.05;16.50;;;;;;;;;;5068961;28;20036;-77
2023/04/07 09:49:24;;;;;;;20.20;15.73;;;;;;;;;;5077016;28;20048;-76
2023/04/07 09:51:53;;;;;;;20.88;15.38;;;;;;;;;;5076512;28;20042;-76
2023/04/07 09:54:36;;;;;;;21.08;15.40;;;;;;;;;;5066342;28;20087;-77
2023/04/07 09:57:03;;;;;;;19.13;14.98;;;;;;;;;;5072888;28;20065;-76
2023/04/07 09:59:30;;;;;;;18.45;14.05;;;;;;;;;;5060860;28;20059;-77
2023/04/07 10:01:56;;;;;;;19.67;13.80;;;;;;;;;;5064740;28;20102;-77
2023/04/07 10:04:23;;;;;;;18.55;13.27;;;;;;;;;;5075217;28;20086;-77
2023/04/07 10:06:49;;;;;;;15.70;12.07;;;;;;;;;;5079339;28;20041;-76
2023/04/07 10:09:16;;;;;;;12.43;10.63;;;;;;;;;;5081068;28;20447;-76
2023/04/07 10:11:42;;;;;;;15.50;10.77;;;;;;;;;;5080187;28;20056;-77
2023/04/07 10:14:12;;;;;;;16.70;11.82;;;;;;;;;;5081141;28;20565;-76
2023/04/07 10:16:38;;;;;;;17.73;13.20;;;;;;;;;;5067766;28;20552;-77
2023/04/07 10:19:05;;;;;;;18.95;14.25;;;;;;;;;;5079067;28;20040;-77
2023/04/07 10:21:36;;;;;;;16.55;12.77;;;;;;;;;;5081777;28;20071;-77
2023/04/07 10:24:21;;;;;;;16.63;12.93;;;;;;;;;;5082037;28;20048;-77
2023/04/07 10:26:51;;;;;;;17.85;12.93;;;;;;;;;;5061657;28;20066;-76
2023/04/07 10:29:18;;;;;;;17.30;13.55;;;;;;;;;;5083162;28;20075;-77
2023/04/07 10:31:44;;;;;;;18.60;13.88;;;;;;;;;;5078093;28;20048;-77
2023/04/07 10:34:10;;;;;;;19.55;14.60;;;;;;;;;;5082904;28;20044;-78
2023/04/07 10:36:56;;;;;;;18.65;14.02;;;;;;;;;;5078109;28;20047;-76
2023/04/07 10:39:22;;;;;;;18.58;14.75;;;;;;;;;;5077943;28;20052;-77
2023/04/07 10:41:50;;;;;;;18.63;15.05;;;;;;;;;;5081075;28;20040;-77
2023/04/07 10:44:36;;;;;;;16.67;13.30;;;;;;;;;;5078665;28;20188;-76
2023/04/07 10:47:03;;;;;;;19.58;14.18;;;;;;;;;;5079148;28;20091;-77
2023/04/07 10:49:29;;;;;;;19.67;14.27;;;;;;;;;;5077212;28;20058;-78
2023/04/07 10:52:11;;;;;;;18.50;14.63;;;;;;;;;;5071900;28;20819;-77
2023/04/07 10:54:37;;;;;;;18.13;13.80;;;;;;;;;;5075890;28;20075;-78
2023/04/07 10:57:06;;;;;;;18.70;14.45;;;;;;;;;;5070089;28;20044;-79
2023/04/07 10:59:32;;;;;;;;;;;;;;;;;;5073665;28;20105;-76
2023/04/07 11:02:14;;;;;;;20.67;15.15;;;;;;;;;;5076422;28;19961;-78
2023/04/07 11:04:44;;;;;;;16.55;12.90;;;;;;;;;;5077502;28;20496;-79
2023/04/07 11:07:10;;;;;;;17.02;13.05;;;;;;;;;;5070932;28;21270;-77
2023/04/07 11:09:37;;;;;;;17.73;13.25;;;;;;;;;;5078833;28;20506;-75
2023/04/07 11:12:03;;;;;;;17.73;13.75;;;;;;;;;;5073318;28;20395;-76
2023/04/07 11:14:30;;;;;;;17.48;13.77;;;;;;;;;;5080634;28;20083;-78
2023/04/07 11:16:57;;;;;;;16.48;12.95;;;;;;;;;;5080793;28;20058;-76
2023/04/07 11:19:23;;;;;;;17.90;12.73;;;;;;;;;;5073602;28;20181;-77
2023/04/07 11:21:49;;;;;;;18.02;12.95;;;;;;;;;;5074367;28;20107;-75
2023/04/07 11:24:33;;;;;;;17.05;13.30;;;;;;;;;;5077903;28;20047;-75
2023/04/07 11:27:00;;;;;;;15.95;13.07;;;;;;;;;;5073491;28;20475;-76
2023/04/07 11:29:30;;;;;;;16.25;12.32;;;;;;;;;;5079277;28;20048;-76
2023/04/07 11:31:59;;;;;;;13.38;10.80;;;;;;;;;;5071533;28;20597;-77
2023/04/07 11:34:31;;;;;;;14.15;10.82;;;;;;;;;;5077763;28;20074;-76
2023/04/07 11:37:02;;;;;;;11.55;9.93;;;;;;;;;;5077278;28;20931;-78
2023/04/07 11:39:31;;;;;;;12.20;9.82;;;;;;;;;;5078890;28;20344;-76
2023/04/07 11:41:57;;;;;;;13.18;10.20;;;;;;;;;;5074010;28;20037;-76
2023/04/07 11:44:25;;;;;;;12.23;9.45;;;;;;;;;;5077690;28;20052;-77
2023/04/07 11:46:54;;;;;;;12.85;9.23;;;;;;;;;;5071870;28;20056;-77
2023/04/07 11:49:21;;;;;;;13.05;9.52;;;;;;;;;;5073656;28;20043;-77
2023/04/07 11:51:47;;;;;;;11.05;9.25;;;;;;;;;;5075025;28;20044;-76
2023/04/07 11:54:14;;;;;;;11.63;9.32;;;;;;;;;;5072896;28;20040;-77
2023/04/07 11:56:42;;;;;;;13.30;9.55;;;;;;;;;;5087573;28;20078;-77
2023/04/07 11:59:08;;;;;;;10.85;9.63;;;;;;;;;;5077461;28;20117;-76
2023/04/07 12:01:40;;;;;;;13.40;9.93;;;;;;;;;;5078345;28;20045;-77
2023/04/07 12:04:14;;;;;;;12.80;10.20;;;;;;;;;;5073368;28;20048;-77
2023/04/07 12:06:41;;;;;;;11.68;9.52;;;;;;;;;;5072631;28;20052;-77
2023/04/07 12:09:09;;;;;;;11.88;9.13;;;;;;;;;;5077569;28;20759;-78
2023/04/07 12:11:36;;;;;;;11.13;8.77;;;;;;;;;;5074417;28;20064;-78
2023/04/07 12:14:03;;;;;;;12.18;9.65;;;;;;;;;;5074771;28;20044;-77
2023/04/07 12:16:30;;;;;;;10.45;8.73;;;;;;;;;;5077822;28;20750;-78
2023/04/07 12:18:57;;;;;;;12.90;8.75;;;;;;;;;;5060805;28;20055;-77
2023/04/07 12:21:25;;;;;;;12.55;9.75;;;;;;;;;;5076604;28;20101;-76
2023/04/07 12:23:51;;;;;;;9.68;8.68;;;;;;;;;;5074701;28;20059;-76
2023/04/07 12:26:17;;;;;;;11.30;9.23;;;;;;;;;;5078163;28;20060;-76
2023/04/07 12:28:44;;;;;;;10.95;8.95;;;;;;;;;;5077527;28;20423;-77
2023/04/07 12:31:10;;;;;;;12.85;9.60;;;;;;;;;;5079924;28;20048;-76
2023/04/07 12:33:36;;;;;;;10.57;8.13;;;;;;;;;;5079686;28;20613;-77
2023/04/07 12:36:02;;;;;;;11.60;8.82;;;;;;;;;;5079205;28;20036;-77
2023/04/07 12:38:28;;;;;;;11.85;9.10;;;;;;;;;;5081966;28;20801;-77
2023/04/07 12:40:54;;;;;;;10.70;8.55;;;;;;;;;;5077988;28;20058;-78
2023/04/07 12:43:20;;;;;;;25.25;9.48;;;;;;;;;;5077256;28;20044;-77
2023/04/07 12:45:47;;;;;;;10.40;8.82;;;;;;;;;;5079435;28;20043;-77
2023/04/07 12:48:13;;;;;;;9.80;7.80;;;;;;;;;;5079772;28;20048;-77
2023/04/07 12:50:39;;;;;;;9.75;8.10;;;;;;;;;;5075442;28;20126;-79
2023/04/07 12:53:05;;;;;;;10.35;8.18;;;;;;;;;;5078053;28;20052;-79
2023/04/07 12:55:32;;;;;;;8.18;6.97;;;;;;;;;;5075068;28;20048;-77
2023/04/07 12:57:59;;;;;;;7.88;7.05;;;;;;;;;;5076832;28;20048;-77
2023/04/07 13:00:25;;;;;;;8.00;6.93;;;;;;;;;;5066863;28;20760;-76
2023/04/07 13:02:51;;;;;;;8.93;6.93;;;;;;;;;;5077842;28;20862;-77
2023/04/07 13:05:17;;;;;;;7.97;6.97;;;;;;;;;;5072333;28;20208;-78
2023/04/07 13:07:43;;;;;;;9.13;6.80;;;;;;;;;;5076112;28;20059;-78
2023/04/07 13:10:10;;;;;;;8.50;6.75;;;;;;;;;;5072728;28;20059;-79
2023/04/07 13:12:36;;;;;;;9.45;6.50;;;;;;;;;;5077847;28;20060;-80
2023/04/07 13:15:02;;;;;;;9.88;6.68;;;;;;;;;;5077764;28;20039;-80
2023/04/07 13:17:28;;;;;;;10.05;6.88;;;;;;;;;;5072585;28;20568;-79
2023/04/07 13:19:54;;;;;;;9.52;7.40;;;;;;;;;;5077613;28;20052;-78
2023/04/07 13:22:21;;;;;;;8.57;6.85;;;;;;;;;;5080063;28;20894;-78
2023/04/07 13:24:47;;;;;;;7.82;6.65;;;;;;;;;;5078829;28;20064;-77
2023/04/07 13:27:13;;;;;;;8.25;7.00;;;;;;;;;;5072301;28;20036;-78
2023/04/07 13:29:39;;;;;;;7.43;6.63;;;;;;;;;;5076384;28;20052;-77
2023/04/07 13:32:08;;;;;;;9.40;6.97;;;;;;;;;;5057215;28;20484;-80
2023/04/07 13:34:34;;;;;;;8.68;7.65;;;;;;;;;;5070749;28;20044;-78
2023/04/07 13:37:02;;;;;;;8.00;7.18;;;;;;;;;;5075818;28;20040;-77
2023/04/07 13:39:28;;;;;;;9.23;7.32;;;;;;;;;;5069039;28;20052;-77
2023/04/07 13:41:54;;;;;;;10.13;7.22;;;;;;;;;;5071997;28;20054;-76
2023/04/07 13:44:20;;;;;;;10.13;7.90;;;;;;;;;;5073450;28;20040;-77
2023/04/07 13:46:46;;;;;;;9.80;7.82;;;;;;;;;;5071889;28;20412;-78
2023/04/07 13:49:13;;;;;;;11.15;7.88;;;;;;;;;;5074251;28;20055;-77
2023/04/07 13:51:39;;;;;;;9.83;8.10;;;;;;;;;;5073756;28;20063;-77
2023/04/07 13:54:05;;;;;;;10.07;7.63;;;;;;;;;;5072413;28;20401;-76
2023/04/07 13:56:31;;;;;;;10.88;8.10;;;;;;;;;;5071720;28;20469;-76
2023/04/07 13:58:57;;;;;;;12.68;8.73;;;;;;;;;;5073164;28;20044;-76
2023/04/07 14:01:23;;;;;;;9.48;8.25;;;;;;;;;;5052873;28;20047;-77
2023/04/07 14:03:49;;;;;;;11.68;9.18;;;;;;;;;;5076323;28;20028;-77
2023/04/07 14:06:15;;;;;;;9.65;8.40;;;;;;;;;;5070953;28;20111;-77
2023/04/07 14:08:41;;;;;;;10.05;8.45;;;;;;;;;;5073610;28;20063;-77
2023/04/07 14:11:07;;;;;;;10.73;8.57;;;;;;;;;;5068058;28;20049;-76
2023/04/07 14:13:34;;;;;;;11.13;8.43;;;;;;;;;;5071551;28;20055;-78
2023/04/07 14:16:00;;;;;;;16.52;9.27;;;;;;;;;;5072715;28;20419;-76
2023/04/07 14:18:26;;;;;;;10.48;8.75;;;;;;;;;;5070541;28;20032;-77
2023/04/07 14:20:53;;;;;;;9.20;8.23;;;;;;;;;;5074162;28;20478;-76